createdAt,value
2019-05-17T00:04:49.742Z,35.00
2019-05-17T00:09:54.054Z,35.50
2019-05-17T00:15:00.993Z,36.88
2019-05-17T00:20:07.410Z,39.00
2019-05-17T00:25:16.612Z,40.00
2019-05-17T00:30:21.200Z,38.00
2019-05-17T00:35:26.764Z,41.75
2019-05-17T00:40:36.702Z,39.00
2019-05-17T00:45:46.809Z,37.25
2019-05-17T00:51:01.083Z,41.37
2019-05-17T00:56:06.970Z,40.00
2019-05-17T01:01:16.480Z,41.00
2019-05-17T01:06:27.375Z,39.25
2019-05-17T01:11:36.696Z,40.63
2019-05-17T01:16:40.254Z,39.50
2019-05-17T01:21:44.584Z,40.00
2019-05-17T01:26:53.365Z,44.00
2019-05-17T01:31:59.482Z,43.13
2019-05-17T01:37:06.327Z,41.50
2019-05-17T01:42:10.140Z,39.00
2019-05-17T01:47:19.012Z,40.38
2019-05-17T01:52:28.322Z,41.88
2019-05-17T01:57:37.022Z,40.63
2019-05-17T02:02:47.118Z,42.00
2019-05-17T02:07:56.832Z,38.50
2019-05-17T02:12:59.895Z,43.00
2019-05-17T02:18:08.254Z,40.88
2019-05-17T02:23:13.109Z,42.00
2019-05-17T02:28:21.525Z,39.75
2019-05-17T02:33:29.099Z,40.29
2019-05-17T02:38:35.261Z,38.25
2019-05-17T02:43:44.408Z,38.00
2019-05-17T02:48:48.594Z,39.00
2019-05-17T02:53:57.234Z,37.75
2019-05-17T02:59:04.996Z,36.00
2019-05-17T03:04:13.085Z,38.25
2019-05-17T03:09:22.884Z,40.11
2019-05-17T03:14:32.548Z,39.63
2019-05-17T03:19:38.384Z,40.38
2019-05-17T03:24:44.008Z,44.00
2019-05-17T03:29:53.501Z,41.00
2019-05-17T03:35:06.060Z,39.88
2019-05-17T03:40:24.957Z,41.00
2019-05-17T03:45:22.850Z,43.00
2019-05-17T03:50:33.488Z,43.63
2019-05-17T03:55:37.809Z,40.00
2019-05-17T04:00:46.375Z,39.63
2019-05-17T04:05:53.298Z,44.00
2019-05-17T04:11:17.666Z,33.50
2019-05-17T04:16:13.899Z,37.33
2019-05-17T04:21:23.132Z,38.88
2019-05-17T04:26:24.358Z,38.25
2019-05-17T04:31:35.163Z,39.36
2019-05-17T04:36:43.250Z,40.00
2019-05-17T04:41:54.706Z,37.50
2019-05-17T04:47:03.382Z,41.00
2019-05-17T04:52:13.621Z,40.25
2019-05-17T04:57:17.004Z,37.00
2019-05-17T05:02:23.414Z,40.33
2019-05-17T05:07:26.586Z,41.50
2019-05-17T05:12:33.503Z,42.38
2019-05-17T05:17:43.176Z,40.00
2019-05-17T05:22:47.480Z,41.83
2019-05-17T05:27:56.087Z,43.00
2019-05-17T05:33:02.199Z,40.25
2019-05-17T05:38:08.314Z,44.63
2019-05-17T05:43:18.435Z,42.11
2019-05-17T05:48:25.265Z,36.00
2019-05-17T05:53:32.621Z,39.00
2019-05-17T05:58:39.844Z,41.88
2019-05-17T06:03:47.575Z,40.12
2019-05-17T06:08:54.522Z,41.29
2019-05-17T06:14:02.430Z,40.38
2019-05-17T06:19:11.689Z,36.45
2019-05-17T06:24:22.519Z,40.25
2019-05-17T06:29:32.915Z,38.88
2019-05-17T06:34:37.844Z,38.50
2019-05-17T06:39:42.448Z,40.75
2019-05-17T06:44:48.871Z,36.00
2019-05-17T06:49:53.542Z,35.00
2019-05-17T06:54:57.914Z,36.00
2019-05-17T07:00:09.353Z,39.00
2019-05-17T07:05:10.559Z,36.67
2019-05-17T07:10:15.060Z,39.00
2019-05-17T07:15:22.017Z,35.13
2019-05-17T07:20:29.809Z,29.29
2019-05-17T07:25:33.692Z,32.50
2019-05-17T07:30:40.013Z,33.50
2019-05-17T07:35:43.652Z,34.00
2019-05-17T07:40:50.219Z,27.25
2019-05-17T07:46:00.403Z,32.13
2019-05-17T07:51:10.388Z,32.63
2019-05-17T07:56:20.113Z,31.18
2019-05-17T08:01:26.551Z,33.00
2019-05-17T08:06:33.864Z,32.00
2019-05-17T08:11:42.814Z,32.00
2019-05-17T08:16:46.615Z,30.00
2019-05-17T08:21:55.427Z,30.37
2019-05-17T08:27:01.655Z,28.50
2019-05-17T08:32:09.624Z,24.75
2019-05-17T08:37:15.289Z,29.25
2019-05-17T08:42:20.453Z,23.50
2019-05-17T08:47:26.391Z,24.75
2019-05-17T08:52:34.410Z,27.71
2019-05-17T08:57:40.806Z,23.62
2019-05-17T09:02:49.972Z,24.12
2019-05-17T09:07:59.970Z,22.44
2019-05-17T09:13:10.297Z,23.00
2019-05-17T09:18:12.679Z,25.67
2019-05-17T09:23:16.590Z,19.50
2019-05-17T09:28:22.187Z,26.50
2019-05-17T09:33:30.346Z,23.75
2019-05-17T09:38:40.178Z,28.00
2019-05-17T09:43:46.404Z,22.75
2019-05-17T09:48:50.583Z,12.20
2019-05-17T09:53:56.649Z,17.25
2019-05-17T09:59:04.047Z,23.75
2019-05-17T10:04:07.147Z,23.33
2019-05-17T10:09:13.616Z,20.00
2019-05-17T10:14:27.497Z,23.00
2019-05-17T10:19:29.023Z,21.62
2019-05-17T10:24:39.585Z,23.87
2019-05-17T10:29:43.073Z,27.25
2019-05-17T10:34:46.319Z,22.00
2019-05-17T10:39:50.436Z,22.00
2019-05-17T10:44:55.262Z,22.00
2019-05-17T10:49:59.934Z,24.00
2019-05-17T10:55:10.391Z,30.71
2019-05-17T11:00:15.062Z,22.33
2019-05-17T11:05:20.089Z,17.25
2019-05-17T11:10:25.967Z,22.86
2019-05-17T11:15:29.155Z,19.33
2019-05-17T11:20:38.126Z,20.82
2019-05-17T11:25:46.307Z,18.14
2019-05-17T11:30:53.641Z,27.43
2019-05-17T11:36:00.007Z,17.86
2019-05-17T11:41:19.985Z,31.12
2019-05-17T11:46:12.027Z,14.86
2019-05-17T11:51:16.743Z,19.14
2019-05-17T11:56:22.402Z,21.62
2019-05-17T12:01:25.716Z,38.33
2019-05-17T12:06:33.394Z,24.00
2019-05-17T12:11:40.819Z,19.25
2019-05-17T12:16:50.907Z,17.75
2019-05-17T12:21:57.147Z,13.57
2019-05-17T12:27:02.899Z,12.00
2019-05-17T12:32:15.938Z,15.57
2019-05-17T12:37:17.871Z,11.86
2019-05-17T12:42:21.802Z,8.00
2019-05-17T12:47:25.788Z,8.83
2019-05-17T12:52:31.998Z,17.71
2019-05-17T12:57:39.958Z,11.43
2019-05-17T13:02:47.641Z,21.25
2019-05-17T13:07:52.875Z,12.86
2019-05-17T13:12:56.576Z,13.60
2019-05-17T13:18:01.039Z,16.86
2019-05-17T13:23:04.764Z,13.75
2019-05-17T13:28:07.620Z,18.00
2019-05-17T13:33:12.152Z,16.43
2019-05-17T13:38:18.155Z,8.00
2019-05-17T13:43:26.664Z,11.86
2019-05-17T13:48:35.199Z,19.00
2019-05-17T13:53:40.496Z,14.43
2019-05-17T13:58:46.487Z,11.00
2019-05-17T14:03:53.423Z,20.00
2019-05-17T14:08:59.564Z,12.71
2019-05-17T14:14:04.375Z,24.57
2019-05-17T14:19:10.580Z,14.14
2019-05-17T14:24:17.692Z,18.00
2019-05-17T14:29:25.618Z,29.12
2019-05-17T14:34:32.046Z,22.87
2019-05-17T14:39:35.155Z,19.33
2019-05-17T14:44:38.814Z,20.75
2019-05-17T14:49:43.583Z,21.00
2019-05-17T14:54:51.669Z,20.12
2019-05-17T14:59:54.627Z,18.33
2019-05-17T15:05:01.193Z,13.67
2019-05-17T15:10:06.993Z,17.29
2019-05-17T15:15:13.487Z,14.50
2019-05-17T15:20:17.168Z,19.00
2019-05-17T15:25:22.603Z,11.14
2019-05-17T15:30:27.541Z,15.00
2019-05-17T15:35:33.508Z,11.00
2019-05-17T15:40:41.256Z,9.00
2019-05-17T15:45:47.482Z,13.00
2019-05-17T15:50:52.098Z,20.83
2019-05-17T15:56:00.892Z,9.17
2019-05-17T16:01:08.093Z,11.00
2019-05-17T16:06:11.029Z,7.60
2019-05-17T16:11:14.619Z,8.00
2019-05-17T16:16:22.361Z,8.20
2019-05-17T16:21:26.721Z,9.50
2019-05-17T16:26:31.311Z,8.67
2019-05-17T16:31:38.185Z,8.00
2019-05-17T16:36:44.225Z,11.17
2019-05-17T16:41:48.118Z,7.00
2019-05-17T16:46:53.518Z,9.29
2019-05-17T16:51:59.121Z,14.00
2019-05-17T16:57:02.782Z,13.00
2019-05-17T17:02:08.043Z,25.00
2019-05-17T17:07:15.796Z,11.14
2019-05-17T17:12:23.583Z,13.80
2019-05-17T17:17:27.249Z,11.67
2019-05-17T17:22:30.859Z,12.00
2019-05-17T17:27:34.531Z,6.60
2019-05-17T17:32:42.171Z,8.33
2019-05-17T17:37:49.793Z,9.67
2019-05-17T17:42:54.480Z,11.67
2019-05-17T17:47:57.350Z,20.50
2019-05-17T17:53:01.177Z,14.00
2019-05-17T17:58:07.310Z,10.00
2019-05-17T18:03:12.279Z,23.67
2019-05-17T18:08:18.967Z,11.86
2019-05-17T18:13:27.282Z,13.00
2019-05-17T18:18:34.852Z,11.71
2019-05-17T18:23:40.119Z,18.86
2019-05-17T18:28:45.967Z,11.14
2019-05-17T18:33:53.787Z,12.29
2019-05-17T18:38:58.500Z,13.29
2019-05-17T18:44:02.915Z,11.67
2019-05-17T18:49:07.124Z,13.33
2019-05-17T18:54:14.066Z,20.43
2019-05-17T18:59:20.137Z,11.29
2019-05-17T19:04:25.680Z,14.29
2019-05-17T19:09:31.904Z,15.71
2019-05-17T19:14:43.038Z,16.75
2019-05-17T19:19:41.286Z,14.50
2019-05-17T19:24:48.973Z,19.12
2019-05-17T19:29:55.074Z,14.29
2019-05-17T19:35:04.428Z,13.29
2019-05-17T19:40:09.716Z,17.71
2019-05-17T19:45:16.750Z,24.00
2019-05-17T19:50:25.286Z,19.25
2019-05-17T19:55:33.318Z,15.43
2019-05-17T20:00:38.541Z,15.75
2019-05-17T20:05:41.743Z,16.67
2019-05-17T20:10:52.007Z,14.86
2019-05-17T20:15:55.736Z,15.60
2019-05-17T20:20:59.235Z,15.25
2019-05-17T20:26:04.654Z,16.29
2019-05-17T20:31:11.796Z,14.71
2019-05-17T20:36:17.326Z,14.86
2019-05-17T20:41:23.969Z,14.43
2019-05-17T20:46:31.196Z,16.25
2019-05-17T20:51:37.104Z,15.43
2019-05-17T20:56:43.867Z,16.43
2019-05-17T21:01:47.883Z,15.50
2019-05-17T21:06:53.643Z,18.87
2019-05-17T21:11:56.991Z,16.00
2019-05-17T21:17:04.470Z,17.00
2019-05-17T21:22:12.730Z,16.37
2019-05-17T21:27:19.191Z,23.12
2019-05-17T21:32:23.308Z,20.00
2019-05-17T21:37:29.977Z,22.71
2019-05-17T21:42:40.034Z,20.00
2019-05-17T21:47:46.689Z,30.00
2019-05-17T21:52:55.136Z,19.75
2019-05-17T21:58:00.868Z,17.57
2019-05-17T22:03:06.563Z,20.00
2019-05-17T22:08:12.326Z,17.29
2019-05-17T22:13:16.577Z,20.40
2019-05-17T22:18:22.394Z,21.25
2019-05-17T22:23:29.077Z,21.37
2019-05-17T22:28:35.064Z,24.00
2019-05-17T22:33:39.915Z,22.25
2019-05-17T22:38:48.314Z,22.00
2019-05-17T22:43:53.258Z,20.75
2019-05-17T22:49:00.681Z,18.25
2019-05-17T22:54:04.717Z,24.75
2019-05-17T22:59:10.570Z,17.00
2019-05-17T23:04:17.278Z,19.00
2019-05-17T23:09:25.643Z,19.37
2019-05-17T23:14:30.884Z,22.37
2019-05-17T23:19:35.920Z,19.50
2019-05-17T23:24:41.742Z,19.12
2019-05-17T23:29:46.795Z,33.75
2019-05-17T23:34:54.282Z,19.50
2019-05-17T23:40:05.023Z,24.12
2019-05-17T23:45:09.088Z,20.75
2019-05-17T23:50:17.542Z,22.37
2019-05-17T23:55:24.112Z,25.12
